createdAt,value
2022-11-27T00:00:30.401Z,5.94
2022-11-27T00:02:57.101Z,5.89
2022-11-27T00:05:23.674Z,5.85
2022-11-27T00:07:50.389Z,5.81
2022-11-27T00:10:16.950Z,5.76
2022-11-27T00:12:43.542Z,5.69
2022-11-27T00:15:14.625Z,5.65
2022-11-27T00:17:43.483Z,5.66
2022-11-27T00:20:10.282Z,5.61
2022-11-27T00:22:36.997Z,5.55
2022-11-27T00:25:03.883Z,5.51
2022-11-27T00:27:30.487Z,5.44
2022-11-27T00:29:57.175Z,5.37
2022-11-27T00:32:23.679Z,5.32
2022-11-27T00:34:50.296Z,5.32
2022-11-27T00:37:17.055Z,5.34
2022-11-27T00:39:43.678Z,5.36
2022-11-27T00:42:10.297Z,5.43
2022-11-27T00:44:36.802Z,5.45
2022-11-27T00:47:03.669Z,5.46
2022-11-27T00:49:30.219Z,5.49
2022-11-27T00:51:56.804Z,5.50
2022-11-27T00:54:23.294Z,5.52
2022-11-27T00:56:49.825Z,5.58
2022-11-27T00:59:16.432Z,5.63
2022-11-27T01:01:43.724Z,5.67
2022-11-27T01:04:14.768Z,5.68
2022-11-27T01:06:41.860Z,5.69
2022-11-27T01:09:08.736Z,5.70
2022-11-27T01:11:35.924Z,5.69
2022-11-27T01:14:04.189Z,5.70
2022-11-27T01:16:31.840Z,5.68
2022-11-27T01:18:59.426Z,5.68
2022-11-27T01:21:26.945Z,5.69
2022-11-27T01:23:54.150Z,5.68
2022-11-27T01:26:20.868Z,5.70
2022-11-27T01:28:47.904Z,5.69
2022-11-27T01:31:16.800Z,5.70
2022-11-27T01:33:43.868Z,5.65
2022-11-27T01:36:11.749Z,5.62
2022-11-27T01:38:38.398Z,5.59
2022-11-27T01:41:13.593Z,5.53
2022-11-27T01:43:50.049Z,5.47
2022-11-27T01:46:29.261Z,5.44
2022-11-27T01:49:11.417Z,5.44
2022-11-27T01:51:50.548Z,5.40
2022-11-27T01:54:18.481Z,5.37
2022-11-27T01:56:46.399Z,5.34
2022-11-27T01:59:13.287Z,5.29
2022-11-27T02:01:39.834Z,5.23
2022-11-27T02:04:06.300Z,5.17
2022-11-27T02:06:32.956Z,5.12
2022-11-27T02:08:59.622Z,5.06
2022-11-27T02:11:26.050Z,4.98
2022-11-27T02:14:03.338Z,4.92
2022-11-27T02:16:29.975Z,4.81
2022-11-27T02:19:07.416Z,4.73
2022-11-27T02:21:42.146Z,4.59
2022-11-27T02:24:27.237Z,4.49
2022-11-27T02:27:22.714Z,4.37
2022-11-27T02:29:54.391Z,4.24
2022-11-27T02:32:39.633Z,4.14
2022-11-27T02:35:16.988Z,4.07
2022-11-27T02:37:52.710Z,4.01
2022-11-27T02:40:27.438Z,3.95
2022-11-27T02:42:56.842Z,3.92
2022-11-27T02:45:30.465Z,3.82
2022-11-27T02:47:57.583Z,3.69
2022-11-27T02:50:25.471Z,3.66
2022-11-27T02:52:55.263Z,3.62
2022-11-27T02:55:24.569Z,3.56
2022-11-27T02:57:54.318Z,3.50
2022-11-27T03:00:20.929Z,3.47
2022-11-27T03:02:49.968Z,3.45
2022-11-27T03:05:19.041Z,3.44
2022-11-27T03:08:05.740Z,3.45
2022-11-27T03:10:36.064Z,3.46
2022-11-27T03:13:03.489Z,3.52
2022-11-27T03:15:41.912Z,3.57
2022-11-27T03:18:30.609Z,3.65
2022-11-27T03:21:03.869Z,3.68
2022-11-27T03:23:30.483Z,3.72
2022-11-27T03:25:57.124Z,3.79
2022-11-27T03:28:24.466Z,3.84
2022-11-27T03:30:51.166Z,3.87
2022-11-27T03:33:18.018Z,3.88
2022-11-27T03:35:44.705Z,3.88
2022-11-27T03:38:11.330Z,3.89
2022-11-27T03:41:01.178Z,3.78
2022-11-27T03:43:31.919Z,3.80
2022-11-27T03:46:00.122Z,3.74
2022-11-27T03:48:39.208Z,3.69
2022-11-27T03:51:09.218Z,3.69
2022-11-27T03:53:40.261Z,3.64
2022-11-27T03:56:13.302Z,3.55
2022-11-27T03:58:52.836Z,3.53
2022-11-27T04:01:21.537Z,3.50
2022-11-27T04:03:48.250Z,3.50
2022-11-27T04:06:15.245Z,3.49
2022-11-27T04:08:41.937Z,3.48
2022-11-27T04:11:09.177Z,3.48
2022-11-27T04:13:35.845Z,3.44
2022-11-27T04:16:02.604Z,3.39
2022-11-27T04:18:29.139Z,3.34
2022-11-27T04:20:55.771Z,3.45
2022-11-27T04:23:22.297Z,3.46
2022-11-27T04:25:49.634Z,3.41
2022-11-27T04:28:17.741Z,3.35
2022-11-27T04:30:44.840Z,3.37
2022-11-27T04:33:11.402Z,3.33
2022-11-27T04:35:37.891Z,3.30
2022-11-27T04:38:04.467Z,3.25
2022-11-27T04:40:31.060Z,3.18
2022-11-27T04:42:57.584Z,3.17
2022-11-27T04:45:24.109Z,3.12
2022-11-27T04:47:50.704Z,3.07
2022-11-27T04:50:17.349Z,3.03
2022-11-27T04:52:43.988Z,2.97
2022-11-27T04:55:10.626Z,2.90
2022-11-27T04:57:37.466Z,2.89
2022-11-27T05:00:04.947Z,2.76
2022-11-27T05:02:31.759Z,2.76
2022-11-27T05:04:58.451Z,2.66
2022-11-27T05:07:25.126Z,2.54
2022-11-27T05:09:51.697Z,2.54
2022-11-27T05:12:18.283Z,2.46
2022-11-27T05:14:44.973Z,2.42
2022-11-27T05:17:11.933Z,2.41
2022-11-27T05:19:38.460Z,2.36
2022-11-27T05:22:05.566Z,2.27
2022-11-27T05:24:32.342Z,2.23
2022-11-27T05:26:58.869Z,2.21
2022-11-27T05:29:25.990Z,2.15
2022-11-27T05:31:52.560Z,2.12
2022-11-27T05:34:19.304Z,2.07
2022-11-27T05:36:45.991Z,2.06
2022-11-27T05:39:12.705Z,2.05
2022-11-27T05:41:43.279Z,2.02
2022-11-27T05:44:13.972Z,1.89
2022-11-27T05:46:40.753Z,1.82
2022-11-27T05:49:07.402Z,1.79
2022-11-27T05:51:33.904Z,1.73
2022-11-27T05:54:00.401Z,1.68
2022-11-27T05:56:26.953Z,1.66
2022-11-27T05:58:53.664Z,1.68
2022-11-27T06:01:20.325Z,1.71
2022-11-27T06:03:47.107Z,1.68
2022-11-27T06:06:17.669Z,1.72
2022-11-27T06:08:44.977Z,1.73
2022-11-27T06:11:13.735Z,1.70
2022-11-27T06:13:40.513Z,1.70
2022-11-27T06:16:16.278Z,1.69
2022-11-27T06:18:43.243Z,1.67
2022-11-27T06:21:11.180Z,1.65
2022-11-27T06:23:37.864Z,1.62
2022-11-27T06:26:30.464Z,1.62
2022-11-27T06:28:57.856Z,1.61
2022-11-27T06:31:26.626Z,1.59
2022-11-27T06:33:54.343Z,1.58
2022-11-27T06:36:21.760Z,1.55
2022-11-27T06:38:48.585Z,1.51
2022-11-27T06:41:16.954Z,1.49
2022-11-27T06:43:43.921Z,1.50
2022-11-27T06:46:12.763Z,1.49
2022-11-27T06:48:39.630Z,1.53
2022-11-27T06:51:07.666Z,1.53
2022-11-27T06:53:36.126Z,1.50
2022-11-27T06:56:06.344Z,1.49
2022-11-27T06:58:32.977Z,1.50
2022-11-27T07:01:00.299Z,1.51
2022-11-27T07:03:27.294Z,1.46
2022-11-27T07:05:54.375Z,1.44
2022-11-27T07:08:22.309Z,1.44
2022-11-27T07:10:48.953Z,1.41
2022-11-27T07:13:15.434Z,1.45
2022-11-27T07:15:42.351Z,1.46
2022-11-27T07:18:08.910Z,1.50
2022-11-27T07:20:35.426Z,1.54
2022-11-27T07:23:02.086Z,1.59
2022-11-27T07:25:28.875Z,1.65
2022-11-27T07:27:56.027Z,1.70
2022-11-27T07:30:22.533Z,1.68
2022-11-27T07:32:49.041Z,1.75
2022-11-27T07:35:15.613Z,1.78
2022-11-27T07:37:42.284Z,1.74
2022-11-27T07:40:09.506Z,1.82
2022-11-27T07:42:38.686Z,1.81
2022-11-27T07:45:07.450Z,1.92
2022-11-27T07:47:33.955Z,1.99
2022-11-27T07:50:00.873Z,2.05
2022-11-27T07:52:27.553Z,2.07
2022-11-27T07:54:54.064Z,2.06
2022-11-27T07:57:20.628Z,2.09
2022-11-27T07:59:47.644Z,2.17
2022-11-27T08:02:14.425Z,2.20
2022-11-27T08:04:41.509Z,2.14
2022-11-27T08:07:08.366Z,2.19
2022-11-27T08:09:34.886Z,2.28
2022-11-27T08:12:01.445Z,2.32
2022-11-27T08:14:27.914Z,2.26
2022-11-27T08:16:54.520Z,2.27
2022-11-27T08:19:21.186Z,2.43
2022-11-27T08:21:47.679Z,2.62
2022-11-27T08:24:14.244Z,2.56
2022-11-27T08:26:40.978Z,2.81
2022-11-27T08:29:07.598Z,2.64
2022-11-27T08:31:34.648Z,2.85
2022-11-27T08:34:01.276Z,3.09
2022-11-27T08:36:28.129Z,3.31
2022-11-27T08:38:55.494Z,3.29
2022-11-27T08:41:22.526Z,3.38
2022-11-27T08:43:53.367Z,3.41
2022-11-27T08:46:20.012Z,3.39
2022-11-27T08:48:46.556Z,3.61
2022-11-27T08:51:14.583Z,3.68
2022-11-27T08:53:41.569Z,3.63
2022-11-27T08:56:16.717Z,3.63
2022-11-27T08:58:43.422Z,3.95
2022-11-27T09:01:11.323Z,4.25
2022-11-27T09:03:38.087Z,4.46
2022-11-27T09:06:09.066Z,4.49
2022-11-27T09:08:35.567Z,4.39
2022-11-27T09:11:04.329Z,4.61
2022-11-27T09:13:31.326Z,5.00
2022-11-27T09:15:58.303Z,5.07
2022-11-27T09:18:25.057Z,4.83
2022-11-27T09:20:55.357Z,4.61
2022-11-27T09:23:21.965Z,4.95
2022-11-27T09:25:52.308Z,5.14
2022-11-27T09:28:19.031Z,4.84
2022-11-27T09:30:45.677Z,5.06
2022-11-27T09:33:12.237Z,5.07
2022-11-27T09:35:38.919Z,5.76
2022-11-27T09:38:05.511Z,5.95
2022-11-27T09:40:32.365Z,6.17
2022-11-27T09:43:03.026Z,6.33
2022-11-27T09:45:30.432Z,6.11
2022-11-27T09:48:01.410Z,5.87
2022-11-27T09:50:30.012Z,5.85
2022-11-27T09:53:11.769Z,5.98
2022-11-27T09:55:42.074Z,6.24
2022-11-27T09:58:16.352Z,6.62
2022-11-27T10:00:46.711Z,5.82
2022-11-27T10:03:14.077Z,6.31
2022-11-27T10:06:09.982Z,6.53
2022-11-27T10:08:55.325Z,6.23
2022-11-27T10:11:29.795Z,6.26
2022-11-27T10:14:10.210Z,6.44
2022-11-27T10:17:00.159Z,6.12
2022-11-27T10:19:35.905Z,6.21
2022-11-27T10:22:19.666Z,6.24
2022-11-27T10:24:59.965Z,6.93
2022-11-27T10:27:35.879Z,6.25
2022-11-27T10:30:04.232Z,6.77
2022-11-27T10:32:54.591Z,6.79
2022-11-27T10:35:22.184Z,7.03
2022-11-27T10:38:07.199Z,7.62
2022-11-27T10:40:42.151Z,7.42
2022-11-27T10:43:21.840Z,7.68
2022-11-27T10:45:48.495Z,7.63
2022-11-27T10:48:17.685Z,7.61
2022-11-27T10:50:46.039Z,7.39
2022-11-27T10:53:37.909Z,7.74
2022-11-27T10:56:07.594Z,7.75
2022-11-27T10:58:43.113Z,7.28
2022-11-27T11:01:11.200Z,7.38
2022-11-27T11:03:37.767Z,8.24
2022-11-27T11:06:23.124Z,7.75
2022-11-27T11:09:25.698Z,8.03
2022-11-27T11:11:52.292Z,7.77
2022-11-27T11:14:26.907Z,7.77
2022-11-27T11:16:54.806Z,7.32
2022-11-27T11:19:25.952Z,7.18
2022-11-27T11:21:52.622Z,7.64
2022-11-27T11:24:29.531Z,7.78
2022-11-27T11:27:02.120Z,7.75
2022-11-27T11:29:28.593Z,8.20
2022-11-27T11:31:57.043Z,8.62
2022-11-27T11:34:25.682Z,8.80
2022-11-27T11:37:00.272Z,8.28
2022-11-27T11:39:28.355Z,8.44
2022-11-27T11:41:54.917Z,8.48
2022-11-27T11:44:29.921Z,8.27
2022-11-27T11:46:56.418Z,8.57
2022-11-27T11:49:29.843Z,8.44
2022-11-27T11:52:09.902Z,8.77
2022-11-27T11:54:45.920Z,9.03
2022-11-27T11:57:24.138Z,9.08
2022-11-27T11:59:56.651Z,8.91
2022-11-27T12:02:42.855Z,8.95
2022-11-27T12:05:20.857Z,8.58
2022-11-27T12:07:53.341Z,8.54
2022-11-27T12:10:28.330Z,8.61
2022-11-27T12:13:00.644Z,8.43
2022-11-27T12:15:51.030Z,7.77
2022-11-27T12:18:36.197Z,7.76
2022-11-27T12:21:21.521Z,7.88
2022-11-27T12:23:49.552Z,7.92
2022-11-27T12:26:16.059Z,8.14
2022-11-27T12:29:01.692Z,7.97
2022-11-27T12:31:47.228Z,7.86
2022-11-27T12:34:39.403Z,8.15
2022-11-27T12:37:45.204Z,8.29
2022-11-27T12:40:32.264Z,8.08
2022-11-27T12:43:14.034Z,8.52
2022-11-27T12:45:49.757Z,8.28
2022-11-27T12:48:46.140Z,7.94
2022-11-27T12:51:19.334Z,8.05
2022-11-27T12:53:48.363Z,7.87
2022-11-27T12:56:26.111Z,8.33
2022-11-27T12:59:07.176Z,8.38
2022-11-27T13:01:48.928Z,8.43
2022-11-27T13:04:24.261Z,8.28
2022-11-27T13:06:58.035Z,8.15
2022-11-27T13:09:36.971Z,8.14
2022-11-27T13:12:10.556Z,7.84
2022-11-27T13:14:52.439Z,8.04
2022-11-27T13:17:20.964Z,7.82
2022-11-27T13:19:51.263Z,7.96
2022-11-27T13:22:42.164Z,8.04
2022-11-27T13:25:21.581Z,7.81
2022-11-27T13:27:56.983Z,7.65
2022-11-27T13:30:40.345Z,7.31
2022-11-27T13:33:19.610Z,7.31
2022-11-27T13:36:02.296Z,7.21
2022-11-27T13:38:38.186Z,7.10
2022-11-27T13:41:06.418Z,7.32
2022-11-27T13:43:48.265Z,7.14
2022-11-27T13:46:45.185Z,7.07
2022-11-27T13:49:49.515Z,7.00
2022-11-27T13:52:30.788Z,6.95
2022-11-27T13:55:08.895Z,6.82
2022-11-27T13:57:47.305Z,6.68
2022-11-27T14:00:16.417Z,6.71
2022-11-27T14:02:50.603Z,6.44
2022-11-27T14:05:43.195Z,6.37
2022-11-27T14:08:36.300Z,6.16
2022-11-27T14:11:04.379Z,6.32
2022-11-27T14:13:40.185Z,6.34
2022-11-27T14:16:21.362Z,6.30
2022-11-27T14:19:00.585Z,6.29
2022-11-27T14:21:39.004Z,6.31
2022-11-27T14:24:28.480Z,5.97
2022-11-27T14:26:58.438Z,5.81
2022-11-27T14:29:28.690Z,5.75
2022-11-27T14:32:07.333Z,5.75
2022-11-27T14:34:34.336Z,5.54
2022-11-27T14:37:03.821Z,5.43
2022-11-27T14:39:33.697Z,5.43
2022-11-27T14:42:26.271Z,5.43
2022-11-27T14:45:13.289Z,5.42
2022-11-27T14:47:44.403Z,5.30
2022-11-27T14:50:31.187Z,5.22
2022-11-27T14:53:13.015Z,5.09
2022-11-27T14:55:43.037Z,5.04
2022-11-27T14:58:22.890Z,5.14
2022-11-27T15:00:54.432Z,5.02
2022-11-27T15:03:23.784Z,5.05
2022-11-27T15:05:52.873Z,4.89
2022-11-27T15:08:23.053Z,4.87
2022-11-27T15:10:53.207Z,4.76
2022-11-27T15:13:33.459Z,4.73
2022-11-27T15:16:02.786Z,4.63
2022-11-27T15:18:31.214Z,4.65
2022-11-27T15:21:01.151Z,4.68
2022-11-27T15:23:32.029Z,4.64
2022-11-27T15:26:14.416Z,4.71
2022-11-27T15:28:45.250Z,4.81
2022-11-27T15:31:33.517Z,4.69
2022-11-27T15:34:11.150Z,4.57
2022-11-27T15:36:42.229Z,4.48
2022-11-27T15:39:45.445Z,4.51
2022-11-27T15:42:21.434Z,4.54
2022-11-27T15:44:53.009Z,4.45
2022-11-27T15:47:43.185Z,4.35
2022-11-27T15:50:16.960Z,4.31
2022-11-27T15:52:43.802Z,4.25
2022-11-27T15:55:15.898Z,4.17
2022-11-27T15:57:42.869Z,4.21
2022-11-27T16:00:16.783Z,4.23
2022-11-27T16:02:52.551Z,4.14
2022-11-27T16:05:21.875Z,4.10
2022-11-27T16:07:53.580Z,4.06
2022-11-27T16:10:21.622Z,3.96
2022-11-27T16:12:48.257Z,3.96
2022-11-27T16:15:14.827Z,3.93
2022-11-27T16:17:41.447Z,3.92
2022-11-27T16:20:08.566Z,3.88
2022-11-27T16:22:35.056Z,3.97
2022-11-27T16:25:01.780Z,3.88
2022-11-27T16:27:28.289Z,3.78
2022-11-27T16:29:54.773Z,3.76
2022-11-27T16:32:21.497Z,3.81
2022-11-27T16:34:49.973Z,3.76
2022-11-27T16:37:18.519Z,3.85
2022-11-27T16:39:45.402Z,3.83
2022-11-27T16:42:12.278Z,3.87
2022-11-27T16:44:39.204Z,3.83
2022-11-27T16:47:05.892Z,3.92
2022-11-27T16:49:32.465Z,3.85
2022-11-27T16:51:58.932Z,3.89
2022-11-27T16:54:25.577Z,4.07
2022-11-27T16:56:52.209Z,4.09
2022-11-27T16:59:18.702Z,3.99
2022-11-27T17:01:45.541Z,3.88
2022-11-27T17:04:19.185Z,4.05
2022-11-27T17:06:46.339Z,3.89
2022-11-27T17:09:13.315Z,3.98
2022-11-27T17:11:42.824Z,3.89
2022-11-27T17:14:09.769Z,3.89
2022-11-27T17:16:39.969Z,4.05
2022-11-27T17:19:06.606Z,4.00
2022-11-27T17:21:34.454Z,4.05
2022-11-27T17:24:02.471Z,3.99
2022-11-27T17:26:30.293Z,4.16
2022-11-27T17:28:57.353Z,4.15
2022-11-27T17:31:25.467Z,4.07
2022-11-27T17:33:53.826Z,4.25
2022-11-27T17:36:20.369Z,4.26
2022-11-27T17:38:46.932Z,4.22
2022-11-27T17:41:14.046Z,4.24
2022-11-27T17:43:41.226Z,4.29
2022-11-27T17:46:12.477Z,4.28
2022-11-27T17:48:39.280Z,4.24
2022-11-27T17:51:07.084Z,4.18
2022-11-27T17:53:33.819Z,4.10
2022-11-27T17:56:04.614Z,4.08
2022-11-27T17:58:31.582Z,4.05
2022-11-27T18:00:58.646Z,4.33
2022-11-27T18:03:25.241Z,4.41
2022-11-27T18:05:51.840Z,4.28
2022-11-27T18:08:18.648Z,4.12
2022-11-27T18:10:45.490Z,4.24
2022-11-27T18:13:12.113Z,4.36
2022-11-27T18:15:38.819Z,4.42
2022-11-27T18:18:05.416Z,4.29
2022-11-27T18:20:32.042Z,4.27
2022-11-27T18:22:58.805Z,4.19
2022-11-27T18:25:25.321Z,4.14
2022-11-27T18:27:51.842Z,4.17
2022-11-27T18:30:18.514Z,4.21
2022-11-27T18:32:45.079Z,4.24
2022-11-27T18:35:11.593Z,4.29
2022-11-27T18:37:38.626Z,4.41
2022-11-27T18:40:06.285Z,4.06
2022-11-27T18:42:33.248Z,4.01
2022-11-27T18:44:59.805Z,4.05
2022-11-27T18:47:26.703Z,4.03
2022-11-27T18:49:55.818Z,4.04
2022-11-27T18:52:22.396Z,4.03
2022-11-27T18:54:48.983Z,3.95
2022-11-27T18:57:15.597Z,4.00
2022-11-27T18:59:45.343Z,4.19
2022-11-27T19:02:12.267Z,4.01
2022-11-27T19:04:39.042Z,4.02
2022-11-27T19:07:06.039Z,3.93
2022-11-27T19:09:32.903Z,3.92
2022-11-27T19:11:59.596Z,3.84
2022-11-27T19:14:26.181Z,3.72
2022-11-27T19:16:53.380Z,3.83
2022-11-27T19:22:08.281Z,3.90
2022-11-27T19:24:34.767Z,3.95
2022-11-27T19:27:01.374Z,3.77
2022-11-27T19:29:27.935Z,3.74
2022-11-27T19:31:56.150Z,3.68
2022-11-27T19:34:22.871Z,3.54
2022-11-27T19:36:49.393Z,3.65
2022-11-27T19:39:15.936Z,3.76
2022-11-27T19:41:43.436Z,3.59
2022-11-27T19:44:10.844Z,3.61
2022-11-27T19:46:37.720Z,3.56
2022-11-27T19:49:06.481Z,3.66
2022-11-27T19:51:34.600Z,3.55
2022-11-27T19:54:05.687Z,3.58
2022-11-27T19:56:37.469Z,3.63
2022-11-27T19:59:04.116Z,3.76
2022-11-27T20:01:30.861Z,3.67
2022-11-27T20:03:57.603Z,3.71
2022-11-27T20:06:25.088Z,3.62
2022-11-27T20:08:52.611Z,3.53
2022-11-27T20:11:20.873Z,3.44
2022-11-27T20:13:47.538Z,3.56
2022-11-27T20:16:15.564Z,3.46
2022-11-27T20:18:42.796Z,3.56
2022-11-27T20:21:17.083Z,3.31
2022-11-27T20:23:44.415Z,3.14
2022-11-27T20:26:13.005Z,3.28
2022-11-27T20:28:46.341Z,3.11
2022-11-27T20:31:16.631Z,3.03
2022-11-27T20:33:43.508Z,2.96
2022-11-27T20:36:14.221Z,2.90
2022-11-27T20:38:41.230Z,2.96
2022-11-27T20:41:12.018Z,2.97
2022-11-27T20:43:38.545Z,2.87
2022-11-27T20:46:05.287Z,2.83
2022-11-27T20:48:32.200Z,2.85
2022-11-27T20:51:05.512Z,2.93
2022-11-27T20:53:32.240Z,2.86
2022-11-27T20:56:05.656Z,2.75
2022-11-27T20:58:32.396Z,2.82
2022-11-27T21:01:00.155Z,2.84
2022-11-27T21:03:27.354Z,2.90
2022-11-27T21:05:53.908Z,3.01
2022-11-27T21:08:20.485Z,3.10
2022-11-27T21:10:47.301Z,3.11
2022-11-27T21:13:14.066Z,3.08
2022-11-27T21:15:45.703Z,3.03
2022-11-27T21:18:12.238Z,3.00
2022-11-27T21:20:38.860Z,2.98
2022-11-27T21:23:05.362Z,3.16
2022-11-27T21:25:31.990Z,3.00
2022-11-27T21:27:59.529Z,3.14
2022-11-27T21:30:26.072Z,3.30
2022-11-27T21:32:52.689Z,3.21
2022-11-27T21:35:19.528Z,3.18
2022-11-27T21:37:48.254Z,3.16
2022-11-27T21:40:14.807Z,3.07
2022-11-27T21:42:44.550Z,3.04
2022-11-27T21:45:19.045Z,2.98
2022-11-27T21:47:45.594Z,2.96
2022-11-27T21:50:13.612Z,2.99
2022-11-27T21:52:44.866Z,2.91
2022-11-27T21:55:12.328Z,2.94
2022-11-27T21:57:39.087Z,2.91
2022-11-27T22:00:06.348Z,2.82
2022-11-27T22:02:33.054Z,2.82
2022-11-27T22:04:59.608Z,2.74
2022-11-27T22:07:26.513Z,2.85
2022-11-27T22:10:01.990Z,2.86
2022-11-27T22:12:28.832Z,3.06
2022-11-27T22:14:55.480Z,3.04
2022-11-27T22:17:24.493Z,3.15
2022-11-27T22:19:51.196Z,2.98
2022-11-27T22:22:17.663Z,3.07
2022-11-27T22:24:44.567Z,3.08
2022-11-27T22:27:11.233Z,2.90
2022-11-27T22:29:38.215Z,3.11
2022-11-27T22:32:04.748Z,3.07
2022-11-27T22:34:31.248Z,3.20
2022-11-27T22:36:57.802Z,3.07
2022-11-27T22:39:24.449Z,2.97
2022-11-27T22:41:50.950Z,3.06
2022-11-27T22:44:18.941Z,3.09
2022-11-27T22:46:45.760Z,3.03
2022-11-27T22:49:13.288Z,2.96
2022-11-27T22:51:40.217Z,3.02
2022-11-27T22:54:07.579Z,3.20
2022-11-27T22:56:34.289Z,3.20
2022-11-27T22:59:24.501Z,3.20
2022-11-27T23:01:48.724Z,3.15
2022-11-27T23:04:15.416Z,3.12
2022-11-27T23:06:42.134Z,3.22
2022-11-27T23:09:09.605Z,3.21
2022-11-27T23:11:36.133Z,3.20
2022-11-27T23:14:03.522Z,2.96
2022-11-27T23:16:30.099Z,3.04
2022-11-27T23:18:56.791Z,3.18
2022-11-27T23:21:24.274Z,3.20
2022-11-27T23:23:51.514Z,3.13
2022-11-27T23:26:22.136Z,3.05
2022-11-27T23:28:49.996Z,3.02
2022-11-27T23:31:33.858Z,3.03
2022-11-27T23:34:03.984Z,3.11
2022-11-27T23:36:33.538Z,3.05
2022-11-27T23:39:01.134Z,3.15
2022-11-27T23:41:28.037Z,3.13
2022-11-27T23:43:55.078Z,3.12
2022-11-27T23:46:29.135Z,3.09
2022-11-27T23:48:59.650Z,3.09
2022-11-27T23:51:27.741Z,3.07
2022-11-27T23:54:03.574Z,3.09
2022-11-27T23:56:31.216Z,3.01
2022-11-27T23:58:58.679Z,2.92
